createdAt,value
2023-03-24T00:01:10.755Z,15.24
2023-03-24T00:03:39.008Z,14.86
2023-03-24T00:06:09.206Z,14.91
2023-03-24T00:08:38.158Z,14.97
2023-03-24T00:11:08.238Z,15.00
2023-03-24T00:13:38.804Z,15.12
2023-03-24T00:16:08.257Z,15.16
2023-03-24T00:18:39.186Z,15.11
2023-03-24T00:21:09.054Z,15.01
2023-03-24T00:23:36.880Z,14.94
2023-03-24T00:26:07.051Z,14.81
2023-03-24T00:28:37.028Z,14.98
2023-03-24T00:31:06.680Z,15.18
2023-03-24T00:33:35.237Z,15.14
2023-03-24T00:36:06.877Z,15.12
2023-03-24T00:38:36.296Z,15.13
2023-03-24T00:41:04.182Z,15.13
2023-03-24T00:43:32.179Z,14.50
2023-03-24T00:46:01.792Z,15.15
2023-03-24T00:48:30.846Z,15.10
2023-03-24T00:50:58.865Z,15.13
2023-03-24T00:53:29.436Z,14.98
2023-03-24T00:55:58.351Z,15.02
2023-03-24T00:58:26.676Z,15.06
2023-03-24T01:00:57.140Z,15.00
2023-03-24T01:03:27.288Z,14.92
2023-03-24T01:05:57.582Z,14.81
2023-03-24T01:08:25.703Z,14.46
2023-03-24T01:10:55.725Z,14.53
2023-03-24T01:13:26.629Z,14.43
2023-03-24T01:15:55.789Z,14.45
2023-03-24T01:18:24.678Z,14.18
2023-03-24T01:20:54.306Z,14.20
2023-03-24T01:23:24.169Z,13.86
2023-03-24T01:25:54.808Z,14.28
2023-03-24T01:28:25.849Z,14.50
2023-03-24T01:30:54.844Z,14.77
2023-03-24T01:33:23.689Z,14.66
2023-03-24T01:35:52.313Z,14.64
2023-03-24T01:38:20.126Z,14.78
2023-03-24T01:40:48.535Z,14.54
2023-03-24T01:43:21.560Z,14.55
2023-03-24T01:46:14.744Z,14.41
2023-03-24T01:48:46.715Z,14.40
2023-03-24T01:51:20.397Z,14.33
2023-03-24T01:53:54.386Z,14.65
2023-03-24T01:56:23.076Z,14.69
2023-03-24T01:58:59.543Z,14.76
2023-03-24T02:01:48.012Z,14.90
2023-03-24T02:04:39.275Z,15.25
2023-03-24T02:07:15.019Z,15.45
2023-03-24T02:09:42.816Z,15.48
2023-03-24T02:12:10.805Z,15.57
2023-03-24T02:14:40.430Z,15.58
2023-03-24T02:17:33.300Z,15.33
2023-03-24T02:20:37.070Z,15.13
2023-03-24T02:23:32.697Z,15.07
2023-03-24T02:26:26.421Z,15.23
2023-03-24T02:29:04.515Z,15.31
2023-03-24T02:32:00.674Z,15.44
2023-03-24T02:35:11.616Z,15.70
2023-03-24T02:38:09.409Z,15.77
2023-03-24T02:40:45.795Z,15.96
2023-03-24T02:43:26.781Z,16.02
2023-03-24T02:46:13.851Z,16.07
2023-03-24T02:48:57.109Z,16.09
2023-03-24T02:51:28.629Z,16.08
2023-03-24T02:54:08.012Z,16.15
2023-03-24T02:56:41.088Z,16.19
2023-03-24T02:59:29.812Z,16.35
2023-03-24T03:02:06.348Z,16.39
2023-03-24T03:04:49.879Z,16.36
2023-03-24T03:07:22.923Z,16.26
2023-03-24T03:09:56.995Z,16.20
2023-03-24T03:12:31.538Z,16.32
2023-03-24T03:15:03.943Z,16.19
2023-03-24T03:17:36.683Z,16.18
2023-03-24T03:20:11.185Z,16.41
2023-03-24T03:22:44.708Z,16.33
2023-03-24T03:25:15.318Z,16.35
2023-03-24T03:27:46.778Z,16.12
2023-03-24T03:30:19.135Z,16.44
2023-03-24T03:32:54.473Z,16.39
2023-03-24T03:35:27.802Z,16.32
2023-03-24T03:38:03.016Z,16.37
2023-03-24T03:40:36.145Z,16.19
2023-03-24T03:43:12.752Z,16.22
2023-03-24T03:45:40.664Z,16.19
2023-03-24T03:48:09.250Z,16.24
2023-03-24T03:50:38.135Z,16.25
2023-03-24T03:53:09.567Z,16.28
2023-03-24T03:55:38.197Z,16.18
2023-03-24T03:58:06.536Z,16.06
2023-03-24T04:00:46.069Z,16.03
2023-03-24T04:03:53.769Z,16.04
2023-03-24T04:06:38.527Z,15.79
2023-03-24T04:09:21.333Z,15.96
2023-03-24T04:12:24.519Z,15.85
2023-03-24T04:15:27.942Z,15.64
2023-03-24T04:18:42.637Z,15.64
2023-03-24T04:21:28.508Z,15.67
2023-03-24T04:24:12.554Z,15.66
2023-03-24T04:26:49.247Z,15.36
2023-03-24T04:29:25.882Z,15.32
2023-03-24T04:32:02.294Z,15.39
2023-03-24T04:34:36.453Z,15.39
2023-03-24T04:37:22.117Z,14.97
2023-03-24T04:40:07.339Z,15.30
2023-03-24T04:42:38.725Z,15.21
2023-03-24T04:45:08.511Z,15.19
2023-03-24T04:47:53.595Z,15.03
2023-03-24T04:50:54.226Z,15.15
2023-03-24T04:53:22.317Z,15.15
2023-03-24T04:56:23.651Z,15.04
2023-03-24T04:59:12.990Z,14.90
2023-03-24T05:01:40.997Z,14.79
2023-03-24T05:04:36.814Z,14.51
2023-03-24T05:07:21.272Z,14.19
2023-03-24T05:09:52.264Z,14.00
2023-03-24T05:12:20.016Z,13.91
2023-03-24T05:15:09.025Z,13.84
2023-03-24T05:17:37.596Z,13.89
2023-03-24T05:20:10.647Z,13.61
2023-03-24T05:22:41.583Z,13.54
2023-03-24T05:25:10.115Z,13.56
2023-03-24T05:27:38.464Z,13.48
2023-03-24T05:30:20.372Z,13.46
2023-03-24T05:32:51.046Z,13.41
2023-03-24T05:35:19.508Z,13.36
2023-03-24T05:37:48.776Z,13.39
2023-03-24T05:40:17.233Z,13.40
2023-03-24T05:42:52.625Z,13.09
2023-03-24T05:45:22.310Z,13.35
2023-03-24T05:47:50.088Z,13.32
2023-03-24T05:50:23.763Z,13.26
2023-03-24T05:52:53.435Z,13.30
2023-03-24T05:55:53.907Z,13.31
2023-03-24T05:58:51.390Z,13.39
2023-03-24T06:01:19.431Z,13.34
2023-03-24T06:03:49.773Z,13.50
2023-03-24T06:06:18.494Z,13.50
2023-03-24T06:08:47.669Z,13.30
2023-03-24T06:11:16.945Z,13.22
2023-03-24T06:14:00.429Z,13.29
2023-03-24T06:16:33.745Z,13.55
2023-03-24T06:19:04.102Z,13.46
2023-03-24T06:21:50.545Z,13.60
2023-03-24T06:24:22.360Z,13.50
2023-03-24T06:26:51.430Z,13.56
2023-03-24T06:29:19.153Z,13.48
2023-03-24T06:31:49.548Z,13.36
2023-03-24T06:34:17.800Z,13.48
2023-03-24T06:36:55.614Z,13.40
2023-03-24T06:39:25.160Z,13.58
2023-03-24T06:41:53.241Z,13.57
2023-03-24T06:44:21.129Z,13.56
2023-03-24T06:46:49.275Z,13.73
2023-03-24T06:49:17.011Z,13.75
2023-03-24T06:51:44.771Z,13.79
2023-03-24T06:54:14.475Z,13.73
2023-03-24T06:56:43.638Z,13.62
2023-03-24T06:59:11.700Z,13.61
2023-03-24T07:01:39.750Z,13.82
2023-03-24T07:04:27.795Z,13.63
2023-03-24T07:07:19.053Z,13.58
2023-03-24T07:09:53.623Z,13.56
2023-03-24T07:12:22.710Z,12.92
2023-03-24T07:14:50.845Z,13.58
2023-03-24T07:17:18.682Z,13.68
2023-03-24T07:20:10.085Z,13.47
2023-03-24T07:23:04.398Z,13.63
2023-03-24T07:25:48.946Z,13.45
2023-03-24T07:28:36.822Z,13.53
2023-03-24T07:31:10.875Z,13.70
2023-03-24T07:33:39.603Z,13.71
2023-03-24T07:36:08.857Z,13.68
2023-03-24T07:38:39.058Z,13.96
2023-03-24T07:41:11.168Z,13.51
2023-03-24T07:43:44.337Z,13.68
2023-03-24T07:46:33.686Z,13.81
2023-03-24T07:49:12.242Z,13.81
2023-03-24T07:51:49.440Z,13.52
2023-03-24T07:54:27.239Z,13.73
2023-03-24T07:56:55.785Z,13.63
2023-03-24T07:59:26.823Z,13.83
2023-03-24T08:02:17.568Z,13.78
2023-03-24T08:05:14.701Z,13.62
2023-03-24T08:07:54.224Z,13.74
2023-03-24T08:10:24.140Z,13.75
2023-03-24T08:12:52.627Z,13.87
2023-03-24T08:15:22.203Z,13.60
2023-03-24T08:17:50.480Z,13.72
2023-03-24T08:20:19.872Z,13.61
2023-03-24T08:22:50.269Z,13.85
2023-03-24T08:25:19.814Z,13.77
2023-03-24T08:27:48.483Z,13.73
2023-03-24T08:30:18.816Z,13.75
2023-03-24T08:32:49.485Z,13.52
2023-03-24T08:35:19.382Z,13.77
2023-03-24T08:37:47.092Z,13.68
2023-03-24T08:40:19.193Z,13.72
2023-03-24T08:42:49.881Z,13.77
2023-03-24T08:45:20.915Z,13.89
2023-03-24T08:47:52.149Z,13.95
2023-03-24T08:50:21.603Z,13.72
2023-03-24T08:52:49.824Z,13.85
2023-03-24T08:55:18.596Z,13.79
2023-03-24T08:57:46.765Z,13.81
2023-03-24T09:00:16.710Z,13.89
2023-03-24T09:02:46.617Z,13.94
2023-03-24T09:05:20.031Z,13.81
2023-03-24T09:07:52.653Z,13.95
2023-03-24T09:10:22.488Z,13.82
2023-03-24T09:12:50.850Z,13.99
2023-03-24T09:15:18.911Z,13.85
2023-03-24T09:17:46.858Z,13.76
2023-03-24T09:20:17.181Z,13.88
2023-03-24T09:22:46.857Z,13.91
2023-03-24T09:25:17.397Z,13.92
2023-03-24T09:27:45.530Z,13.94
2023-03-24T09:30:15.541Z,13.89
2023-03-24T09:32:43.470Z,13.82
2023-03-24T09:35:12.044Z,13.71
2023-03-24T09:37:42.945Z,14.00
2023-03-24T09:40:20.501Z,14.08
2023-03-24T09:42:55.009Z,13.98
2023-03-24T09:45:25.045Z,13.92
2023-03-24T09:47:59.022Z,13.92
2023-03-24T09:50:30.821Z,14.11
2023-03-24T09:53:05.739Z,14.13
2023-03-24T09:55:36.269Z,14.16
2023-03-24T09:58:08.417Z,14.08
2023-03-24T10:00:37.874Z,13.96
2023-03-24T10:03:20.988Z,14.10
2023-03-24T10:05:54.363Z,14.01
2023-03-24T10:08:32.473Z,13.94
2023-03-24T10:11:04.728Z,13.91
2023-03-24T10:13:45.071Z,14.01
2023-03-24T10:16:19.728Z,13.97
2023-03-24T10:18:55.214Z,14.22
2023-03-24T10:21:27.008Z,14.19
2023-03-24T10:24:03.375Z,14.39
2023-03-24T10:26:43.502Z,14.05
2023-03-24T10:29:27.801Z,13.96
2023-03-24T10:32:00.277Z,14.03
2023-03-24T10:34:31.409Z,13.87
2023-03-24T10:37:02.231Z,13.79
2023-03-24T10:39:42.087Z,13.94
2023-03-24T10:42:18.315Z,13.75
2023-03-24T10:44:48.119Z,13.72
2023-03-24T10:47:19.364Z,13.81
2023-03-24T10:49:55.512Z,13.75
2023-03-24T10:52:24.928Z,13.80
2023-03-24T10:54:58.894Z,13.77
2023-03-24T10:57:28.615Z,13.69
2023-03-24T10:59:59.675Z,13.44
2023-03-24T11:02:31.187Z,13.57
2023-03-24T11:05:02.286Z,13.55
2023-03-24T11:07:33.592Z,13.44
2023-03-24T11:10:07.019Z,13.42
2023-03-24T11:12:36.676Z,13.26
2023-03-24T11:15:21.892Z,13.05
2023-03-24T11:17:56.441Z,12.90
2023-03-24T11:20:29.852Z,12.89
2023-03-24T11:23:01.533Z,12.96
2023-03-24T11:25:46.726Z,12.96
2023-03-24T11:28:17.795Z,13.13
2023-03-24T11:30:47.845Z,13.13
2023-03-24T11:33:35.659Z,13.28
2023-03-24T11:36:28.767Z,13.37
2023-03-24T11:39:01.018Z,13.36
2023-03-24T11:41:31.567Z,13.20
2023-03-24T11:44:16.915Z,13.36
2023-03-24T11:46:47.510Z,13.51
2023-03-24T11:49:19.365Z,13.18
2023-03-24T11:51:51.441Z,13.44
2023-03-24T11:54:21.509Z,13.40
2023-03-24T11:56:53.326Z,13.46
2023-03-24T11:59:30.253Z,13.39
2023-03-24T12:02:05.629Z,13.47
2023-03-24T12:04:52.316Z,13.51
2023-03-24T12:07:53.167Z,13.59
2023-03-24T12:10:34.755Z,13.65
2023-03-24T12:13:16.049Z,13.63
2023-03-24T12:16:01.999Z,12.81
2023-03-24T12:18:43.058Z,14.08
2023-03-24T12:21:20.900Z,14.17
2023-03-24T12:23:58.602Z,14.40
2023-03-24T12:26:28.559Z,14.50
2023-03-24T12:29:05.885Z,14.52
2023-03-24T12:32:08.010Z,14.44
2023-03-24T12:35:14.295Z,14.81
2023-03-24T12:37:50.378Z,15.41
2023-03-24T12:41:09.569Z,16.02
2023-03-24T12:43:45.846Z,16.46
2023-03-24T12:46:40.602Z,16.32
2023-03-24T12:49:24.864Z,16.34
2023-03-24T12:52:06.168Z,16.35
2023-03-24T12:54:45.942Z,16.81
2023-03-24T12:57:18.217Z,16.66
2023-03-24T12:59:49.812Z,16.94
2023-03-24T13:02:26.377Z,17.15
2023-03-24T13:04:59.104Z,17.38
2023-03-24T13:07:28.834Z,17.37
2023-03-24T13:10:01.618Z,17.46
2023-03-24T13:12:33.902Z,17.40
2023-03-24T13:15:08.524Z,17.10
2023-03-24T13:17:44.406Z,17.08
2023-03-24T13:20:14.736Z,17.41
2023-03-24T13:22:43.059Z,17.13
2023-03-24T13:25:24.511Z,16.99
2023-03-24T13:27:57.779Z,16.59
2023-03-24T13:30:32.542Z,16.53
2023-03-24T13:33:06.109Z,16.52
2023-03-24T13:35:53.332Z,16.74
2023-03-24T13:38:28.216Z,16.77
2023-03-24T13:40:57.532Z,16.77
2023-03-24T13:43:29.890Z,16.71
2023-03-24T13:46:01.318Z,16.72
2023-03-24T13:48:37.533Z,16.35
2023-03-24T13:51:09.993Z,15.92
2023-03-24T13:53:40.889Z,15.78
2023-03-24T13:56:10.832Z,15.49
2023-03-24T13:58:51.038Z,15.40
2023-03-24T14:01:33.240Z,15.56
2023-03-24T14:04:25.786Z,15.63
2023-03-24T14:06:55.177Z,15.64
2023-03-24T14:09:24.436Z,15.93
2023-03-24T14:12:17.956Z,16.10
2023-03-24T14:15:15.802Z,15.90
2023-03-24T14:17:48.974Z,15.70
2023-03-24T14:20:45.239Z,15.52
2023-03-24T14:23:25.868Z,15.64
2023-03-24T14:25:55.504Z,16.40
2023-03-24T14:28:29.547Z,16.77
2023-03-24T14:31:03.667Z,16.99
2023-03-24T14:33:31.925Z,17.21
2023-03-24T14:36:06.380Z,17.55
2023-03-24T14:38:37.997Z,17.70
2023-03-24T14:41:09.112Z,17.55
2023-03-24T14:43:58.129Z,17.33
2023-03-24T14:46:40.854Z,17.02
2023-03-24T14:49:19.874Z,16.64
2023-03-24T14:51:57.503Z,16.59
2023-03-24T14:54:31.414Z,16.75
2023-03-24T14:57:00.304Z,16.88
2023-03-24T14:59:38.043Z,16.64
2023-03-24T15:02:17.247Z,16.74
2023-03-24T15:05:19.650Z,16.66
2023-03-24T15:08:03.284Z,16.55
2023-03-24T15:10:36.621Z,16.55
2023-03-24T15:13:04.977Z,16.74
2023-03-24T15:15:34.201Z,16.77
2023-03-24T15:18:03.022Z,16.79
2023-03-24T15:20:35.925Z,16.78
2023-03-24T15:23:08.672Z,17.02
2023-03-24T15:25:36.668Z,16.64
2023-03-24T15:28:18.074Z,16.50
2023-03-24T15:30:46.385Z,16.52
2023-03-24T15:33:15.145Z,16.80
2023-03-24T15:35:42.877Z,17.03
2023-03-24T15:38:21.783Z,17.10
2023-03-24T15:40:57.195Z,17.38
2023-03-24T15:43:25.656Z,17.55
2023-03-24T15:46:04.523Z,17.39
2023-03-24T15:48:37.790Z,17.48
2023-03-24T15:51:07.826Z,17.32
2023-03-24T15:53:43.912Z,16.67
2023-03-24T15:56:18.840Z,16.76
2023-03-24T15:58:50.733Z,16.13
2023-03-24T16:01:21.665Z,16.13
2023-03-24T16:03:49.682Z,16.19
2023-03-24T16:06:29.533Z,16.29
2023-03-24T16:09:01.605Z,16.25
2023-03-24T16:11:29.922Z,16.19
2023-03-24T16:13:58.953Z,16.35
2023-03-24T16:16:29.739Z,16.16
2023-03-24T16:18:59.127Z,16.26
2023-03-24T16:21:28.205Z,16.28
2023-03-24T16:23:57.955Z,16.22
2023-03-24T16:26:28.578Z,15.84
2023-03-24T16:29:01.644Z,15.64
2023-03-24T16:31:31.640Z,15.36
2023-03-24T16:33:59.308Z,15.56
2023-03-24T16:36:27.977Z,15.44
2023-03-24T16:38:57.396Z,15.69
2023-03-24T16:41:27.121Z,15.43
2023-03-24T16:43:55.079Z,15.16
2023-03-24T16:46:32.014Z,15.32
2023-03-24T16:49:00.213Z,15.22
2023-03-24T16:51:29.753Z,15.14
2023-03-24T16:53:57.662Z,15.03
2023-03-24T16:56:27.375Z,14.99
2023-03-24T16:58:56.256Z,14.83
2023-03-24T17:01:29.974Z,14.71
2023-03-24T17:03:59.638Z,14.75
2023-03-24T17:06:29.072Z,14.82
2023-03-24T17:08:58.071Z,14.87
2023-03-24T17:11:30.346Z,14.68
2023-03-24T17:14:01.946Z,14.58
2023-03-24T17:16:30.220Z,14.56
2023-03-24T17:18:57.928Z,14.68
2023-03-24T17:21:25.744Z,14.90
2023-03-24T17:23:55.020Z,14.82
2023-03-24T17:26:23.116Z,14.81
2023-03-24T17:28:52.259Z,14.65
2023-03-24T17:31:20.125Z,14.68
2023-03-24T17:33:47.911Z,14.70
2023-03-24T17:36:17.196Z,14.67
2023-03-24T17:38:47.157Z,14.59
2023-03-24T17:41:14.930Z,14.64
2023-03-24T17:43:43.275Z,14.73
2023-03-24T17:46:12.633Z,14.69
2023-03-24T17:48:40.360Z,14.82
2023-03-24T17:51:08.214Z,14.67
2023-03-24T17:53:36.591Z,14.60
2023-03-24T17:56:06.884Z,14.61
2023-03-24T17:58:36.419Z,14.68
2023-03-24T18:01:07.727Z,14.68
2023-03-24T18:03:38.147Z,14.50
2023-03-24T18:06:08.525Z,14.55
2023-03-24T18:08:36.537Z,14.34
2023-03-24T18:11:06.242Z,14.18
2023-03-24T18:13:34.021Z,14.26
2023-03-24T18:16:13.166Z,14.31
2023-03-24T18:18:50.159Z,14.29
2023-03-24T18:21:18.845Z,14.20
2023-03-24T18:23:47.033Z,14.08
2023-03-24T18:26:16.706Z,13.99
2023-03-24T18:28:45.640Z,13.82
2023-03-24T18:31:15.562Z,13.73
2023-03-24T18:33:45.910Z,13.79
2023-03-24T18:36:16.846Z,13.78
2023-03-24T18:38:46.602Z,13.59
2023-03-24T18:41:16.766Z,13.40
2023-03-24T18:43:47.611Z,13.35
2023-03-24T18:46:16.130Z,13.24
2023-03-24T18:48:44.406Z,12.70
2023-03-24T18:51:12.323Z,13.09
2023-03-24T18:53:42.028Z,13.19
2023-03-24T18:56:10.178Z,13.15
2023-03-24T18:58:38.945Z,13.23
2023-03-24T19:01:08.994Z,13.08
2023-03-24T19:03:38.356Z,13.13
2023-03-24T19:06:07.455Z,12.91
2023-03-24T19:08:37.849Z,12.95
2023-03-24T19:11:07.590Z,12.94
2023-03-24T19:13:36.062Z,13.07
2023-03-24T19:16:04.591Z,12.92
2023-03-24T19:18:32.322Z,13.05
2023-03-24T19:21:01.952Z,12.82
2023-03-24T19:23:30.567Z,13.10
2023-03-24T19:25:58.231Z,13.19
2023-03-24T19:28:30.865Z,13.11
2023-03-24T19:30:59.296Z,13.13
2023-03-24T19:33:27.464Z,13.23
2023-03-24T19:35:55.396Z,13.15
2023-03-24T19:38:23.825Z,13.13
2023-03-24T19:40:53.747Z,13.03
2023-03-24T19:43:21.668Z,13.18
2023-03-24T19:45:51.983Z,13.18
2023-03-24T19:48:20.274Z,13.17
2023-03-24T19:50:51.527Z,13.18
2023-03-24T19:53:19.677Z,12.97
2023-03-24T19:55:47.938Z,12.83
2023-03-24T19:58:16.291Z,12.77
2023-03-24T20:00:44.481Z,12.58
2023-03-24T20:03:13.577Z,12.50
2023-03-24T20:05:41.476Z,12.47
2023-03-24T20:08:09.148Z,12.68
2023-03-24T20:10:39.883Z,12.59
2023-03-24T20:13:07.668Z,12.40
2023-03-24T20:15:35.623Z,12.09
2023-03-24T20:18:03.488Z,11.82
2023-03-24T20:20:32.827Z,11.84
2023-03-24T20:23:00.486Z,11.74
2023-03-24T20:25:28.690Z,11.66
2023-03-24T20:27:56.656Z,11.56
2023-03-24T20:30:26.141Z,11.62
2023-03-24T20:32:57.184Z,11.63
2023-03-24T20:35:24.997Z,11.64
2023-03-24T20:37:53.976Z,11.70
2023-03-24T20:40:21.815Z,11.62
2023-03-24T20:42:49.863Z,11.64
2023-03-24T20:45:17.680Z,11.54
2023-03-24T20:47:45.501Z,11.41
2023-03-24T20:50:13.160Z,11.42
2023-03-24T20:52:41.261Z,11.37
2023-03-24T20:55:12.406Z,11.42
2023-03-24T20:57:40.097Z,11.44
2023-03-24T21:00:13.462Z,11.65
2023-03-24T21:02:42.527Z,11.71
2023-03-24T21:05:11.265Z,11.75
2023-03-24T21:07:42.349Z,11.79
2023-03-24T21:10:12.042Z,11.62
2023-03-24T21:12:53.928Z,11.63
2023-03-24T21:15:23.336Z,11.62
2023-03-24T21:17:51.656Z,11.30
2023-03-24T21:20:20.861Z,11.11
2023-03-24T21:22:53.432Z,10.56
2023-03-24T21:25:24.310Z,10.22
2023-03-24T21:27:51.993Z,10.06
2023-03-24T21:30:20.732Z,10.11
2023-03-24T21:32:49.919Z,10.08
2023-03-24T21:35:19.645Z,9.90
2023-03-24T21:37:47.948Z,10.10
2023-03-24T21:40:18.343Z,10.19
2023-03-24T21:42:49.625Z,10.12
2023-03-24T21:45:19.047Z,9.95
2023-03-24T21:47:48.744Z,9.95
2023-03-24T21:50:23.209Z,9.90
2023-03-24T21:52:52.230Z,10.07
2023-03-24T21:55:21.892Z,9.89
2023-03-24T21:57:51.770Z,10.15
2023-03-24T22:00:22.125Z,10.18
2023-03-24T22:02:51.480Z,10.30
2023-03-24T22:05:21.105Z,10.50
2023-03-24T22:07:50.041Z,10.57
2023-03-24T22:10:22.546Z,10.53
2023-03-24T22:12:52.397Z,10.45
2023-03-24T22:15:20.531Z,10.46
2023-03-24T22:17:48.257Z,10.57
2023-03-24T22:20:16.804Z,10.47
2023-03-24T22:22:44.539Z,10.53
2023-03-24T22:25:14.267Z,10.51
2023-03-24T22:27:41.964Z,10.43
2023-03-24T22:30:14.070Z,10.46
2023-03-24T22:32:42.393Z,10.47
2023-03-24T22:35:10.770Z,10.48
2023-03-24T22:37:39.070Z,10.69
2023-03-24T22:40:08.986Z,10.77
2023-03-24T22:42:36.676Z,10.77
2023-03-24T22:45:04.725Z,10.80
2023-03-24T22:47:33.795Z,10.81
2023-03-24T22:50:01.501Z,10.80
2023-03-24T22:52:29.088Z,10.86
2023-03-24T22:54:56.756Z,10.78
2023-03-24T22:57:24.394Z,10.82
2023-03-24T22:59:52.017Z,10.75
2023-03-24T23:02:24.407Z,10.73
2023-03-24T23:04:55.034Z,10.60
2023-03-24T23:07:23.123Z,10.55
2023-03-24T23:09:53.131Z,10.69
2023-03-24T23:12:21.387Z,10.84
2023-03-24T23:14:49.602Z,10.68
2023-03-24T23:17:17.249Z,10.74
2023-03-24T23:19:45.234Z,10.65
2023-03-24T23:22:14.665Z,10.78
2023-03-24T23:24:42.285Z,10.14
2023-03-24T23:27:09.998Z,10.77
2023-03-24T23:29:40.660Z,10.60
2023-03-24T23:32:08.837Z,10.74
2023-03-24T23:34:37.996Z,10.71
2023-03-24T23:37:06.021Z,10.69
2023-03-24T23:39:36.786Z,10.74
2023-03-24T23:42:04.656Z,10.61
2023-03-24T23:44:32.422Z,10.51
2023-03-24T23:47:00.164Z,10.21
2023-03-24T23:49:27.793Z,10.27
2023-03-24T23:51:55.596Z,10.23
2023-03-24T23:54:23.273Z,10.20
2023-03-24T23:56:53.730Z,10.16
2023-03-24T23:59:21.614Z,10.02
